Time;durP1;ratioP1;P1;durP2;ratioP2;P2;SDS_P1;SDS_P2;PMS_P1;PMS_P2;Temp;Humidity;BMP_temperature;BMP_pressure;BME280_temperature;BME280_humidity;BME280_pressure;Samples;Min_cycle;Max_cycle;Signal;HPM_P1;HPM_P2
2022/11/10 00:00:43;;;;;;;27.00;6.15;;;8.80;99.90;;;;;;5032799;28;20049;-82
2022/11/10 00:03:10;;;;;;;22.38;6.00;;;8.90;99.90;;;;;;5036029;28;20184;-83
2022/11/10 00:05:37;;;;;;;17.92;6.57;;;8.80;99.90;;;;;;5050142;28;20049;-81
2022/11/10 00:08:05;;;;;;;19.95;6.50;;;8.80;99.90;;;;;;5047153;28;20053;-81
2022/11/10 00:10:31;;;;;;;18.73;6.05;;;8.80;99.90;;;;;;5050005;28;20060;-82
2022/11/10 00:13:01;;;;;;;31.00;7.13;;;8.90;99.90;;;;;;5033233;28;20121;-82
2022/11/10 00:18:12;;;;;;;25.05;6.50;;;8.80;99.90;;;;;;5049511;28;20686;-81
2022/11/10 00:20:37;;;;;;;22.85;6.43;;;8.80;99.90;;;;;;5031245;28;20081;-83
2022/11/10 00:23:03;;;;;;;28.02;6.50;;;8.70;99.90;;;;;;5045649;28;20087;-81
2022/11/10 00:25:30;;;;;;;23.67;7.90;;;8.80;99.90;;;;;;5033421;28;20045;-82
2022/11/10 00:27:58;;;;;;;16.90;6.10;;;8.70;99.90;;;;;;5062305;28;20395;-81
2022/11/10 00:30:24;;;;;;;20.63;6.57;;;8.70;99.90;;;;;;5030048;28;20057;-83
2022/11/10 00:32:50;;;;;;;20.40;6.30;;;8.80;99.90;;;;;;5033699;28;20045;-82
2022/11/10 00:35:16;;;;;;;25.17;6.97;;;8.70;99.90;;;;;;5043299;28;20460;-82
2022/11/10 00:37:41;;;;;;;26.13;7.30;;;8.70;99.90;;;;;;5064942;28;20041;-81
2022/11/10 00:40:08;;;;;;;22.65;6.93;;;8.70;99.90;;;;;;5041849;28;20049;-81
2022/11/10 00:42:33;;;;;;;25.08;7.28;;;8.70;99.90;;;;;;5066151;28;20053;-80
2022/11/10 00:44:59;;;;;;;25.77;7.03;;;8.70;99.90;;;;;;5018090;28;20139;-83
2022/11/10 00:47:25;;;;;;;26.95;7.38;;;8.60;99.90;;;;;;5051887;28;20135;-81
2022/11/10 00:49:50;;;;;;;21.17;7.65;;;8.70;99.90;;;;;;5048569;28;20513;-82
2022/11/10 00:52:16;;;;;;;27.23;8.30;;;8.60;99.90;;;;;;5052523;28;20578;-81
2022/11/10 00:54:42;;;;;;;28.40;8.38;;;8.70;99.90;;;;;;5046956;28;20067;-81
2022/11/10 00:57:07;;;;;;;23.30;7.63;;;8.60;99.90;;;;;;5032911;28;20052;-81
2022/11/10 00:59:33;;;;;;;24.65;7.72;;;8.70;99.90;;;;;;5066193;28;20144;-80
2022/11/10 01:01:59;;;;;;;24.48;8.77;;;8.60;99.90;;;;;;5048378;28;20059;-86
2022/11/10 01:04:24;;;;;;;21.33;7.72;;;8.60;99.90;;;;;;5048187;28;20094;-81
2022/11/10 01:06:51;;;;;;;29.35;8.68;;;8.60;99.90;;;;;;5048960;28;20049;-81
2022/11/10 01:09:17;;;;;;;30.02;8.45;;;8.60;99.90;;;;;;5041144;28;20110;-80
2022/11/10 01:11:43;;;;;;;28.90;8.45;;;8.60;99.90;;;;;;5048520;28;20110;-80
2022/11/10 01:14:08;;;;;;;34.22;8.63;;;8.50;99.90;;;;;;5058184;28;20033;-81
2022/11/10 01:16:34;;;;;;;30.65;8.85;;;8.60;99.90;;;;;;5050555;28;20047;-81
2022/11/10 01:19:01;;;;;;;29.20;8.63;;;8.50;99.90;;;;;;5041048;28;20041;-87
2022/11/10 01:21:28;;;;;;;21.30;8.35;;;8.50;99.90;;;;;;5046777;28;20053;-81
2022/11/10 01:23:54;;;;;;;30.15;9.20;;;8.50;99.90;;;;;;5047657;28;20089;-81
2022/11/10 01:26:20;;;;;;;27.80;9.02;;;8.50;99.90;;;;;;5041373;28;20087;-81
2022/11/10 01:28:46;;;;;;;30.10;8.60;;;8.40;99.90;;;;;;5043448;28;20072;-83
2022/11/10 01:31:18;;;;;;;33.25;9.38;;;8.50;99.90;;;;;;5032276;28;20040;-81
2022/11/10 01:33:44;;;;;;;29.88;9.55;;;8.40;99.90;;;;;;5050705;28;20041;-80
2022/11/10 01:36:11;;;;;;;36.28;9.98;;;8.40;99.90;;;;;;5050099;28;20094;-80
2022/11/10 01:38:39;;;;;;;32.78;9.68;;;8.40;99.90;;;;;;5052317;28;20047;-81
2022/11/10 01:41:07;;;;;;;29.05;9.82;;;8.30;99.90;;;;;;5037331;28;20048;-81
2022/11/10 01:43:32;;;;;;;28.58;9.10;;;8.30;99.90;;;;;;5050085;28;20049;-81
2022/11/10 01:46:04;;;;;;;33.72;9.68;;;8.30;99.90;;;;;;5056752;28;20053;-82
2022/11/10 01:48:35;;;;;;;26.52;9.75;;;8.30;99.90;;;;;;5057901;28;20498;-82
2022/11/10 01:51:09;;;;;;;29.23;9.88;;;8.30;99.90;;;;;;5038659;28;20079;-82
2022/11/10 01:53:38;;;;;;;35.30;10.88;;;8.30;99.90;;;;;;5035144;28;20060;-82
2022/11/10 01:56:06;;;;;;;33.33;10.75;;;8.30;99.90;;;;;;5041792;28;20049;-85
2022/11/10 01:58:38;;;;;;;29.00;10.43;;;8.30;99.90;;;;;;5008867;28;20049;-82
2022/11/10 02:01:07;;;;;;;29.65;10.00;;;8.30;99.90;;;;;;5017667;28;20053;-86
2022/11/10 02:03:46;;;;;;;43.75;10.82;;;8.20;99.90;;;;;;5048580;28;20170;-82
2022/11/10 02:06:14;;;;;;;35.22;10.82;;;8.20;99.90;;;;;;5048346;28;20116;-85
2022/11/10 02:08:41;;;;;;;33.55;10.27;;;8.20;99.90;;;;;;5047546;28;20037;-82
2022/11/10 02:11:07;;;;;;;33.20;10.70;;;8.20;99.90;;;;;;5050203;28;20043;-87
2022/11/10 02:13:32;;;;;;;36.15;11.15;;;8.30;99.90;;;;;;5021475;28;20053;-81
2022/11/10 02:15:58;;;;;;;30.50;10.48;;;8.30;99.90;;;;;;5044192;28;20042;-82
2022/11/10 02:18:24;;;;;;;31.15;10.35;;;8.30;99.90;;;;;;5033114;28;20061;-81
2022/11/10 02:20:49;;;;;;;30.67;10.45;;;8.30;99.90;;;;;;5053409;28;20513;-82
2022/11/10 02:23:32;;;;;;;33.72;10.63;;;8.30;99.90;;;;;;5036549;28;20037;-81
2022/11/10 02:25:58;;;;;;;29.25;9.57;;;8.30;99.90;;;;;;5061566;28;20514;-86
2022/11/10 02:28:26;;;;;;;32.05;10.40;;;8.40;99.90;;;;;;5051324;28;20088;-81
2022/11/10 02:30:52;;;;;;;34.95;10.40;;;8.40;99.90;;;;;;5067592;28;20054;-82
2022/11/10 02:33:18;;;;;;;29.88;10.02;;;8.50;99.90;;;;;;5043735;28;20120;-82
2022/11/10 02:35:45;;;;;;;30.55;9.15;;;8.40;99.90;;;;;;5045376;28;20037;-80
2022/11/10 02:38:11;;;;;;;25.75;8.63;;;8.40;99.90;;;;;;5067006;28;20072;-87
2022/11/10 02:40:37;;;;;;;30.17;9.45;;;8.40;99.90;;;;;;5045251;28;20053;-81
2022/11/10 02:43:08;;;;;;;24.85;9.02;;;8.40;99.90;;;;;;5036845;28;20040;-81
2022/11/10 02:45:34;;;;;;;30.83;8.88;;;8.50;99.90;;;;;;5055955;28;20080;-81
2022/11/10 02:48:00;;;;;;;23.63;8.35;;;8.50;99.90;;;;;;5053987;28;20079;-81
2022/11/10 02:50:25;;;;;;;28.25;8.90;;;8.50;99.90;;;;;;5054809;28;20051;-85
2022/11/10 02:52:51;;;;;;;26.23;8.05;;;8.60;99.90;;;;;;5051043;28;20033;-83
2022/11/10 02:55:17;;;;;;;36.78;8.85;;;8.50;99.90;;;;;;5033232;28;20049;-81
2022/11/10 02:57:42;;;;;;;33.03;8.90;;;8.50;99.90;;;;;;5033942;28;20049;-80
2022/11/10 03:00:09;;;;;;;26.38;8.48;;;8.50;99.90;;;;;;5038361;28;20041;-82
2022/11/10 03:02:34;;;;;;;27.83;8.20;;;8.50;99.90;;;;;;5053110;28;20505;-81
2022/11/10 03:05:01;;;;;;;25.85;8.15;;;8.50;99.90;;;;;;5048172;28;20056;-81
2022/11/10 03:07:26;;;;;;;28.27;7.75;;;8.50;99.90;;;;;;5024234;28;20094;-81
2022/11/10 03:09:52;;;;;;;27.35;8.30;;;8.50;99.90;;;;;;5047463;28;20720;-81
2022/11/10 03:12:18;;;;;;;31.80;8.80;;;8.50;99.90;;;;;;5050911;28;20502;-80
2022/11/10 03:14:43;;;;;;;30.83;8.38;;;8.50;99.90;;;;;;5045122;28;20041;-80
2022/11/10 03:17:09;;;;;;;26.40;8.30;;;8.50;99.90;;;;;;5058826;28;20053;-83
2022/11/10 03:19:34;;;;;;;29.38;8.48;;;8.60;99.90;;;;;;5022218;28;20452;-81
2022/11/10 03:22:00;;;;;;;28.60;7.60;;;8.50;99.90;;;;;;5062026;28;20107;-81
2022/11/10 03:24:26;;;;;;;31.95;8.82;;;8.50;99.90;;;;;;5050396;28;20548;-81
2022/11/10 03:26:52;;;;;;;27.90;8.63;;;8.50;99.90;;;;;;5051143;28;20040;-81
2022/11/10 03:29:17;;;;;;;29.80;8.73;;;8.60;99.90;;;;;;5047288;28;20131;-86
2022/11/10 03:31:43;;;;;;;21.50;8.13;;;8.60;99.90;;;;;;5051476;28;20052;-81
2022/11/10 03:34:09;;;;;;;28.63;8.68;;;8.50;99.90;;;;;;5048805;28;20099;-80
2022/11/10 03:36:34;;;;;;;26.48;9.65;;;8.50;99.90;;;;;;5056690;28;20052;-81
2022/11/10 03:39:00;;;;;;;33.30;9.18;;;8.50;99.90;;;;;;5060974;28;20084;-80
2022/11/10 03:41:26;;;;;;;28.85;9.75;;;8.50;99.90;;;;;;5041212;28;20102;-79
2022/11/10 03:43:51;;;;;;;29.05;9.55;;;8.50;99.90;;;;;;5051526;28;20037;-80
2022/11/10 03:46:17;;;;;;;37.22;10.13;;;8.50;99.90;;;;;;5034933;28;20041;-81
2022/11/10 03:48:43;;;;;;;30.52;10.10;;;8.40;99.90;;;;;;5051575;28;20053;-82
2022/11/10 03:51:09;;;;;;;26.75;9.70;;;8.40;99.90;;;;;;5045487;28;20647;-81
2022/11/10 03:53:34;;;;;;;34.65;10.10;;;8.30;99.90;;;;;;5037379;28;20053;-81
2022/11/10 03:56:02;;;;;;;35.47;10.32;;;8.30;99.90;;;;;;5049499;28;20056;-80
2022/11/10 03:58:27;;;;;;;37.58;10.55;;;8.30;99.90;;;;;;5057613;28;20052;-81
2022/11/10 04:00:54;;;;;;;38.35;10.43;;;8.30;99.90;;;;;;5034799;28;20052;-80
2022/11/10 04:03:20;;;;;;;38.00;11.10;;;8.40;99.90;;;;;;5049174;28;20119;-84
2022/11/10 04:15:40;;;;;;;34.40;10.57;;;8.40;99.90;;;;;;5049917;28;20044;-81
2022/11/10 04:16:43;;;;;;;39.15;11.38;;;8.40;99.90;;;;;;5052968;28;20157;-81
2022/11/10 04:19:09;;;;;;;39.35;11.35;;;8.40;99.90;;;;;;5051873;28;20112;-82
2022/11/10 04:21:35;;;;;;;45.22;12.02;;;8.40;99.90;;;;;;5049916;28;20059;-80
2022/11/10 04:24:00;;;;;;;35.92;12.05;;;8.50;99.90;;;;;;5052073;28;20045;-81
2022/11/10 04:26:29;;;;;;;38.78;11.52;;;8.50;99.90;;;;;;5041936;28;20180;-81
2022/11/10 04:29:00;;;;;;;34.35;11.20;;;8.50;99.90;;;;;;5033766;28;20399;-80
2022/11/10 04:31:28;;;;;;;37.63;12.68;;;8.50;99.90;;;;;;5036893;28;20053;-88
2022/11/10 04:33:54;;;;;;;40.08;11.90;;;8.50;99.90;;;;;;5049915;28;21003;-81
2022/11/10 04:36:22;;;;;;;40.90;13.00;;;8.50;99.90;;;;;;5051125;28;20052;-81
2022/11/10 04:38:48;;;;;;;37.42;12.05;;;8.50;99.90;;;;;;5055145;28;20101;-81
2022/11/10 04:41:15;;;;;;;33.35;11.35;;;8.50;99.90;;;;;;5046510;28;20049;-82
2022/11/10 04:43:41;;;;;;;40.80;12.60;;;8.60;99.90;;;;;;5060086;28;20051;-81
2022/11/10 04:46:30;;;;;;;34.22;11.60;;;8.60;99.90;;;;;;5042719;28;20049;-80
2022/11/10 04:48:56;;;;;;;39.25;12.35;;;8.60;99.90;;;;;;5054896;28;20057;-80
2022/11/10 04:51:25;;;;;;;33.53;11.43;;;8.70;99.90;;;;;;5050097;28;20055;-81
2022/11/10 04:53:50;;;;;;;49.90;13.68;;;8.70;99.90;;;;;;5060732;28;20056;-82
2022/11/10 04:56:19;;;;;;;40.10;11.95;;;8.80;99.90;;;;;;5043222;28;20084;-80
2022/11/10 04:58:44;;;;;;;34.20;11.13;;;8.80;99.90;;;;;;5050632;28;20087;-84
2022/11/10 05:01:15;;;;;;;42.95;12.40;;;8.80;99.90;;;;;;5029494;28;20045;-81
2022/11/10 05:03:42;;;;;;;37.35;11.80;;;8.90;99.90;;;;;;5040964;28;20123;-80
2022/11/10 05:06:08;;;;;;;34.50;11.57;;;8.90;99.90;;;;;;5050860;28;20041;-81
2022/11/10 05:08:35;;;;;;;36.33;11.13;;;9.00;99.90;;;;;;5049501;28;20063;-81
2022/11/10 05:11:00;;;;;;;44.88;11.98;;;8.90;99.90;;;;;;5029273;28;20115;-82
2022/11/10 05:13:27;;;;;;;43.58;11.20;;;8.90;99.90;;;;;;5049745;28;20040;-81
2022/11/10 05:15:52;;;;;;;32.65;10.88;;;8.90;99.90;;;;;;5048879;28;20041;-80
2022/11/10 05:18:18;;;;;;;37.28;12.15;;;8.90;99.90;;;;;;5028667;28;20098;-82
2022/11/10 05:20:44;;;;;;;50.85;11.80;;;8.90;99.90;;;;;;5046422;28;20069;-83
2022/11/10 05:25:54;;;;;;;41.67;11.20;;;8.80;99.90;;;;;;5051893;28;20064;-81
2022/11/10 05:28:20;;;;;;;41.55;10.65;;;8.80;99.90;;;;;;5058768;28;20040;-81
2022/11/10 05:30:46;;;;;;;33.40;11.35;;;8.80;99.90;;;;;;5053595;28;20482;-83
2022/11/10 05:33:11;;;;;;;35.50;10.27;;;8.90;99.90;;;;;;5032429;28;20057;-81
2022/11/10 05:35:38;;;;;;;35.25;10.63;;;8.90;99.90;;;;;;5041280;28;20478;-81
2022/11/10 05:38:04;;;;;;;33.10;10.15;;;8.90;99.90;;;;;;5054129;28;20059;-81
2022/11/10 05:40:30;;;;;;;48.00;11.45;;;8.90;99.90;;;;;;5032425;28;20049;-81
2022/11/10 05:42:56;;;;;;;34.22;10.77;;;8.90;99.90;;;;;;5056051;28;20045;-81
2022/11/10 05:45:24;;;;;;;38.25;10.85;;;9.00;99.90;;;;;;5049593;28;20974;-81
2022/11/10 05:47:50;;;;;;;34.33;11.32;;;9.00;99.90;;;;;;5048135;28;20045;-81
2022/11/10 05:50:17;;;;;;;32.67;11.18;;;9.00;99.90;;;;;;5012862;28;20041;-82
2022/11/10 05:52:45;;;;;;;34.75;10.95;;;9.00;99.90;;;;;;5031548;28;20048;-82
2022/11/10 05:55:12;;;;;;;43.05;10.57;;;9.00;99.90;;;;;;5055903;28;20087;-81
2022/11/10 05:57:41;;;;;;;30.65;9.70;;;9.00;99.90;;;;;;5046188;28;20068;-83
2022/11/10 06:00:08;;;;;;;35.67;10.98;;;9.00;99.90;;;;;;5048526;28;20041;-80
2022/11/10 06:02:34;;;;;;;46.53;12.13;;;9.00;99.90;;;;;;5049046;28;20056;-82
2022/11/10 06:05:00;;;;;;;43.30;11.55;;;9.10;99.90;;;;;;5024018;28;20385;-81
2022/11/10 06:07:25;;;;;;;40.97;12.70;;;9.10;99.90;;;;;;5052956;28;20094;-80
2022/11/10 06:09:51;;;;;;;36.58;12.57;;;9.10;99.90;;;;;;5047363;28;20041;-84
2022/11/10 06:12:16;;;;;;;44.45;12.60;;;9.20;99.90;;;;;;5062053;28;20048;-81
2022/11/10 06:14:42;;;;;;;39.63;11.48;;;9.10;99.90;;;;;;5063323;28;20087;-80
2022/11/10 06:17:08;;;;;;;39.78;11.68;;;9.20;99.90;;;;;;5051426;28;20099;-81
2022/11/10 06:19:33;;;;;;;36.25;11.88;;;9.20;99.90;;;;;;5031857;28;20052;-84
2022/11/10 06:21:59;;;;;;;40.72;12.60;;;9.20;99.90;;;;;;5032779;28;20123;-83
2022/11/10 06:24:25;;;;;;;38.78;12.18;;;9.10;99.90;;;;;;5032129;28;20120;-81
2022/11/10 06:26:50;;;;;;;33.70;12.13;;;9.00;99.90;;;;;;5057145;28;20487;-80
2022/11/10 06:29:16;;;;;;;48.10;12.73;;;9.00;99.90;;;;;;5032044;28;20047;-80
2022/11/10 06:31:41;;;;;;;47.25;13.18;;;9.00;99.90;;;;;;5044104;28;20397;-88
2022/11/10 06:34:07;;;;;;;43.65;11.88;;;9.00;99.90;;;;;;5048155;28;20560;-80
2022/11/10 06:36:33;;;;;;;35.60;12.45;;;9.00;99.90;;;;;;5046314;28;20076;-80
2022/11/10 06:38:59;;;;;;;42.92;12.27;;;8.90;99.90;;;;;;5048901;28;20045;-78
2022/11/10 06:41:24;;;;;;;37.03;12.30;;;8.90;99.90;;;;;;5052498;28;20625;-85
2022/11/10 06:43:50;;;;;;;41.35;12.13;;;8.90;99.90;;;;;;5047358;28;20547;-82
2022/11/10 06:46:15;;;;;;;39.67;10.95;;;8.90;99.90;;;;;;5028505;28;20072;-82
2022/11/10 06:48:41;;;;;;;42.38;13.10;;;9.00;99.90;;;;;;5045140;28;20411;-90
2022/11/10 06:51:07;;;;;;;42.55;12.52;;;9.00;99.90;;;;;;5045833;28;20079;-81
2022/11/10 06:53:32;;;;;;;35.63;11.02;;;8.90;99.90;;;;;;5025637;28;20406;-82
2022/11/10 06:55:58;;;;;;;41.90;12.20;;;9.10;99.90;;;;;;5020903;28;20063;-83
2022/11/10 06:58:24;;;;;;;35.90;11.32;;;9.00;99.90;;;;;;4990440;28;20060;-82
2022/11/10 07:00:49;;;;;;;37.78;11.48;;;9.10;99.90;;;;;;5037944;28;20060;-80
2022/11/10 07:03:15;;;;;;;37.08;10.82;;;9.10;99.90;;;;;;5044013;28;20045;-83
2022/11/10 07:05:41;;;;;;;36.45;10.95;;;9.10;99.90;;;;;;5038411;28;20091;-81
2022/11/10 07:08:08;;;;;;;34.42;10.85;;;9.10;99.90;;;;;;5037877;28;20115;-81
2022/11/10 07:10:35;;;;;;;34.60;10.73;;;9.10;99.90;;;;;;5045382;28;20063;-81
2022/11/10 07:13:02;;;;;;;38.80;10.43;;;9.20;99.90;;;;;;5027890;28;20509;-81
2022/11/10 07:15:29;;;;;;;39.85;10.65;;;9.20;99.90;;;;;;5035728;28;20037;-83
2022/11/10 07:17:55;;;;;;;28.85;9.73;;;9.30;99.90;;;;;;5041017;28;20094;-82
2022/11/10 07:20:21;;;;;;;34.35;10.57;;;9.30;99.90;;;;;;5051795;28;20041;-80
2022/11/10 07:22:46;;;;;;;35.17;10.02;;;9.40;99.90;;;;;;5051838;28;20521;-87
2022/11/10 07:25:12;;;;;;;33.35;10.00;;;9.40;99.90;;;;;;5034835;28;20394;-82
2022/11/10 07:27:38;;;;;;;32.47;10.52;;;9.50;99.90;;;;;;5043715;28;20109;-81
2022/11/10 07:30:04;;;;;;;41.22;10.55;;;9.50;99.90;;;;;;5058248;28;20520;-81
2022/11/10 07:32:30;;;;;;;34.15;10.35;;;9.50;99.90;;;;;;5057019;28;20057;-81
2022/11/10 07:34:56;;;;;;;35.35;10.45;;;9.60;99.90;;;;;;5060782;28;20374;-81
2022/11/10 07:37:22;;;;;;;28.80;9.95;;;9.60;99.90;;;;;;5054672;28;20052;-81
2022/11/10 07:39:47;;;;;;;38.72;11.10;;;9.60;99.90;;;;;;5042766;28;20490;-86
2022/11/10 07:42:13;;;;;;;26.25;10.18;;;9.60;99.90;;;;;;5042031;28;20058;-84
2022/11/10 07:44:39;;;;;;;30.63;9.80;;;9.50;99.90;;;;;;5045887;28;20051;-82
2022/11/10 07:47:04;;;;;;;36.33;10.07;;;9.50;99.90;;;;;;5043744;28;20075;-81
2022/11/10 07:49:30;;;;;;;35.80;10.48;;;9.50;99.90;;;;;;5034142;28;20085;-82
2022/11/10 07:51:56;;;;;;;29.02;9.93;;;9.40;99.90;;;;;;5021627;28;20502;-81
2022/11/10 07:54:21;;;;;;;39.38;10.48;;;9.40;99.90;;;;;;5067747;28;20504;-82
2022/11/10 07:56:47;;;;;;;35.08;10.68;;;9.40;99.90;;;;;;5034417;28;20057;-81
2022/11/10 07:59:13;;;;;;;33.30;10.35;;;9.50;99.90;;;;;;5048168;28;20684;-83
2022/11/10 08:01:39;;;;;;;29.05;10.48;;;9.40;99.90;;;;;;5048024;28;20103;-84
2022/11/10 08:04:04;;;;;;;32.90;10.27;;;9.50;99.90;;;;;;5024840;28;20052;-82
2022/11/10 08:06:31;;;;;;;34.00;10.20;;;9.50;99.90;;;;;;5031113;28;20084;-82
2022/11/10 08:08:57;;;;;;;26.08;10.18;;;9.50;99.90;;;;;;5054590;28;20129;-81
2022/11/10 08:11:22;;;;;;;38.08;10.95;;;9.50;99.90;;;;;;5048265;28;20123;-81
2022/11/10 08:13:48;;;;;;;30.83;11.00;;;9.50;99.90;;;;;;5018881;28;20128;-81
2022/11/10 08:16:13;;;;;;;36.30;10.07;;;9.50;99.90;;;;;;5030282;28;20099;-83
2022/11/10 08:18:39;;;;;;;31.85;10.88;;;9.50;99.90;;;;;;5046820;28;20044;-82
2022/11/10 08:21:05;;;;;;;41.10;12.70;;;9.50;99.90;;;;;;5021499;28;20040;-81
2022/11/10 08:23:31;;;;;;;33.15;11.30;;;9.40;99.90;;;;;;5032861;28;20387;-81
2022/11/10 08:25:59;;;;;;;45.63;12.50;;;9.40;99.90;;;;;;5034492;28;20282;-81
2022/11/10 08:28:25;;;;;;;37.20;11.23;;;9.40;99.90;;;;;;5045204;28;20049;-82
2022/11/10 08:30:51;;;;;;;33.78;12.52;;;9.40;99.90;;;;;;5030672;28;20136;-83
2022/11/10 08:33:18;;;;;;;32.65;12.52;;;9.50;99.90;;;;;;5033928;28;20041;-81
2022/11/10 08:35:46;;;;;;;33.03;12.20;;;9.60;99.90;;;;;;5035698;28;20061;-81
2022/11/10 08:38:20;;;;;;;34.88;12.45;;;9.70;99.90;;;;;;5050002;28;20099;-82
2022/11/10 08:40:47;;;;;;;42.30;13.32;;;9.90;99.90;;;;;;5050858;28;20443;-82
2022/11/10 08:43:13;;;;;;;35.78;12.45;;;10.10;99.90;;;;;;5045299;28;20127;-81
2022/11/10 08:45:41;;;;;;;28.45;12.80;;;10.20;99.90;;;;;;5051120;28;20045;-82
2022/11/10 08:48:12;;;;;;;34.10;12.52;;;10.30;99.90;;;;;;5053430;28;20045;-82
2022/11/10 08:50:38;;;;;;;35.20;11.90;;;10.40;99.90;;;;;;5048244;28;20053;-81
2022/11/10 08:53:06;;;;;;;29.80;13.07;;;10.50;99.90;;;;;;5033659;28;20130;-81
2022/11/10 08:55:33;;;;;;;28.23;12.32;;;10.60;99.90;;;;;;5068166;28;20512;-82
2022/11/10 08:58:00;;;;;;;31.25;13.15;;;10.60;99.90;;;;;;5063123;28;20045;-84
2022/11/10 09:00:30;;;;;;;26.58;11.63;;;10.60;99.90;;;;;;5064739;28;20044;-82
2022/11/10 09:03:02;;;;;;;35.10;12.43;;;10.60;99.90;;;;;;5053251;28;20041;-81
2022/11/10 09:05:27;;;;;;;35.25;13.50;;;10.60;99.90;;;;;;5056767;28;20486;-83
2022/11/10 09:07:53;;;;;;;38.88;13.77;;;10.60;99.90;;;;;;5070673;28;20044;-82
2022/11/10 09:10:19;;;;;;;35.40;12.68;;;10.70;99.90;;;;;;5055506;28;20037;-83
2022/11/10 09:12:44;;;;;;;33.05;12.68;;;10.70;99.90;;;;;;5032006;28;20102;-82
2022/11/10 09:15:11;;;;;;;36.83;12.63;;;10.80;99.90;;;;;;5028947;28;20037;-81
2022/11/10 09:17:38;;;;;;;30.55;13.02;;;10.90;99.90;;;;;;5042715;28;20485;-82
2022/11/10 09:20:06;;;;;;;43.90;13.45;;;11.00;99.90;;;;;;5027283;28;20505;-82
2022/11/10 09:22:36;;;;;;;32.28;12.35;;;11.00;99.90;;;;;;5068668;28;20131;-82
2022/11/10 09:25:02;;;;;;;32.78;12.13;;;11.10;99.90;;;;;;5051302;28;20044;-87
2022/11/10 09:27:28;;;;;;;33.55;12.65;;;11.10;99.90;;;;;;5056027;28;20051;-80
2022/11/10 09:29:54;;;;;;;30.98;12.15;;;11.10;99.90;;;;;;5071219;28;20123;-79
2022/11/10 09:32:20;;;;;;;35.20;11.63;;;11.20;99.90;;;;;;5051371;28;20105;-82
2022/11/10 09:34:45;;;;;;;28.83;10.45;;;11.30;99.90;;;;;;5037255;28;20045;-79
2022/11/10 09:37:11;;;;;;;29.88;9.30;;;11.50;99.90;;;;;;5051323;28;20045;-79
2022/11/10 09:39:36;;;;;;;31.20;9.77;;;11.60;99.90;;;;;;5050619;28;20436;-79
2022/11/10 09:42:05;;;;;;;24.27;7.78;;;11.60;99.90;;;;;;5049499;28;20049;-87
2022/11/10 09:44:50;;;;;;;26.20;7.60;;;11.80;99.90;;;;;;5049994;28;20102;-80
2022/11/10 09:47:26;;;;;;;23.35;6.13;;;11.90;99.90;;;;;;5048059;28;20064;-81
2022/11/10 09:50:00;;;;;;;23.43;6.60;;;12.10;99.90;;;;;;5059412;28;20049;-81
2022/11/10 09:52:30;;;;;;;21.30;6.07;;;12.20;99.90;;;;;;5047407;28;20287;-81
2022/11/10 09:55:02;;;;;;;25.30;6.35;;;12.30;99.90;;;;;;5061519;28;20037;-80
2022/11/10 09:57:29;;;;;;;20.17;5.45;;;12.30;99.90;;;;;;5053732;28;20064;-82
2022/11/10 09:59:55;;;;;;;24.42;5.80;;;12.40;99.90;;;;;;5052581;28;20074;-82
2022/11/10 10:02:34;;;;;;;34.42;6.13;;;12.50;99.90;;;;;;5041182;28;20410;-81
2022/11/10 10:05:19;;;;;;;26.02;6.45;;;12.70;99.90;;;;;;5045509;28;20101;-82
2022/11/10 10:07:56;;;;;;;22.05;6.22;;;12.80;99.90;;;;;;5035853;28;20107;-82
2022/11/10 10:10:37;;;;;;;27.70;7.28;;;12.80;99.90;;;;;;5061789;28;20045;-82
2022/11/10 10:13:50;;;;;;;25.45;7.40;;;12.70;99.90;;;;;;5058660;28;20040;-81
2022/11/10 10:16:25;;;;;;;30.30;8.35;;;12.80;99.90;;;;;;5042043;28;20094;-81
2022/11/10 10:19:12;;;;;;;31.30;9.25;;;12.90;99.90;;;;;;5052326;28;20398;-82
2022/11/10 10:21:55;;;;;;;31.63;8.95;;;12.90;99.90;;;;;;5045472;28;20059;-81
2022/11/10 10:24:26;;;;;;;31.23;9.38;;;12.90;99.90;;;;;;5052543;28;20041;-82
2022/11/10 10:26:55;;;;;;;29.23;9.07;;;12.90;99.90;;;;;;5059282;28;20045;-85
2022/11/10 10:29:24;;;;;;;30.67;10.77;;;13.00;99.90;;;;;;5053919;28;20048;-81
2022/11/10 10:31:51;;;;;;;37.05;10.00;;;13.10;99.90;;;;;;5058889;28;20045;-83
2022/11/10 10:34:23;;;;;;;30.92;9.57;;;13.10;99.90;;;;;;5045838;28;20036;-81
2022/11/10 10:36:49;;;;;;;29.73;8.63;;;13.30;99.90;;;;;;5054008;28;20049;-81
2022/11/10 10:39:29;;;;;;;24.00;7.75;;;13.30;99.90;;;;;;5028569;28;20053;-82
2022/11/10 10:41:55;;;;;;;30.60;7.65;;;13.30;99.90;;;;;;5061045;28;20072;-82
2022/11/10 10:44:22;;;;;;;27.20;7.80;;;13.40;99.90;;;;;;5063683;28;20122;-81
2022/11/10 10:46:58;;;;;;;20.10;7.05;;;13.30;99.90;;;;;;5057320;28;20549;-81
2022/11/10 10:49:29;;;;;;;25.27;6.25;;;13.30;99.90;;;;;;5052658;28;20057;-85
2022/11/10 10:52:12;;;;;;;23.83;6.45;;;13.40;99.90;;;;;;5045430;28;20045;-80
2022/11/10 10:54:38;;;;;;;18.80;4.68;;;13.50;99.90;;;;;;5049451;28;20053;-80
2022/11/10 10:57:19;;;;;;;22.75;4.38;;;13.50;99.90;;;;;;5043956;28;20840;-80
2022/11/10 10:59:45;;;;;;;20.27;5.20;;;13.40;99.90;;;;;;5065905;28;20053;-82
2022/11/10 11:02:27;;;;;;;21.58;4.63;;;13.40;99.90;;;;;;5048636;28;20513;-87
2022/11/10 11:05:15;;;;;;;17.83;4.63;;;13.60;99.90;;;;;;5047841;28;20538;-81
2022/11/10 11:07:53;;;;;;;19.15;4.55;;;13.80;99.90;;;;;;5053003;28;20501;-82
2022/11/10 11:10:20;;;;;;;21.40;3.97;;;13.80;99.90;;;;;;5031012;28;20044;-82
2022/11/10 11:12:46;;;;;;;16.75;4.03;;;13.90;99.90;;;;;;5054089;28;20052;-82
2022/11/10 11:15:27;;;;;;;16.55;3.55;;;13.80;99.90;;;;;;5037875;28;20041;-88
2022/11/10 11:17:57;;;;;;;18.98;3.42;;;13.80;99.90;;;;;;5054955;28;20084;-80
2022/11/10 11:20:44;;;;;;;20.92;3.22;;;13.80;99.90;;;;;;5056070;28;20037;-83
2022/11/10 11:23:28;;;;;;;;;;;13.70;99.90;;;;;;5040816;28;20049;-83
2022/11/10 11:26:17;;;;;;;18.45;4.28;;;13.70;99.90;;;;;;5028994;28;19948;-82
2022/11/10 11:29:08;;;;;;;18.92;3.60;;;13.70;99.90;;;;;;5029031;28;20057;-83
2022/11/10 11:31:53;;;;;;;24.63;4.30;;;13.70;99.90;;;;;;5030497;28;20155;-82
2022/11/10 11:34:33;;;;;;;16.90;3.47;;;13.80;99.90;;;;;;5056500;28;20084;-83
2022/11/10 11:37:03;;;;;;;20.00;3.45;;;13.90;99.90;;;;;;5046180;28;20049;-82
2022/11/10 11:39:50;;;;;;;25.48;3.58;;;14.00;99.90;;;;;;5037647;28;20057;-80
2022/11/10 11:42:27;;;;;;;18.95;3.50;;;14.10;99.90;;;;;;5036587;28;20052;-86
2022/11/10 11:45:46;;;;;;;19.52;4.20;;;14.10;99.90;;;;;;5049628;28;20045;-80
2022/11/10 11:48:21;;;;;;;19.27;3.80;;;14.20;99.90;;;;;;5003498;28;20065;-83
2022/11/10 11:50:49;;;;;;;14.40;3.20;;;14.20;99.90;;;;;;5038797;28;20043;-86
2022/11/10 11:53:43;;;;;;;15.65;3.75;;;14.30;99.90;;;;;;5036119;28;20084;-88
2022/11/10 11:56:12;;;;;;;23.85;4.10;;;14.40;99.90;;;;;;5018574;28;20128;-84
2022/11/10 11:58:56;;;;;;;17.17;4.07;;;14.40;99.90;;;;;;5038133;28;20102;-81
2022/11/10 12:01:48;;;;;;;22.00;4.20;;;14.40;99.90;;;;;;5043111;28;20057;-81
2022/11/10 12:04:41;;;;;;;21.95;4.00;;;14.40;99.90;;;;;;5034250;28;20109;-82
2022/11/10 12:07:17;;;;;;;18.02;3.65;;;14.40;99.90;;;;;;5031429;28;20053;-85
2022/11/10 12:10:08;;;;;;;18.50;3.50;;;14.50;99.90;;;;;;5050471;28;20119;-79
2022/11/10 12:13:14;;;;;;;36.85;4.97;;;14.50;99.90;;;;;;5048041;28;20060;-83
2022/11/10 12:15:48;;;;;;;16.88;3.13;;;14.50;99.90;;;;;;5031591;28;20094;-85
2022/11/10 12:18:35;;;;;;;19.73;3.72;;;14.40;99.90;;;;;;5048801;28;20055;-84
2022/11/10 12:21:09;;;;;;;16.40;3.53;;;14.40;99.90;;;;;;5030116;28;20604;-83
2022/11/10 12:23:47;;;;;;;25.13;3.85;;;14.30;99.90;;;;;;5058829;28;20125;-82
2022/11/10 12:26:40;;;;;;;19.30;3.65;;;14.20;99.90;;;;;;5044283;28;20482;-82
2022/11/10 12:29:52;;;;;;;19.95;3.53;;;14.10;99.90;;;;;;5027837;28;20566;-83
2022/11/10 12:32:28;;;;;;;19.48;3.58;;;14.10;99.90;;;;;;5066633;28;20048;-85
2022/11/10 12:35:15;;;;;;;16.10;3.25;;;14.00;99.90;;;;;;5055806;28;20053;-82
2022/11/10 12:38:07;;;;;;;21.08;3.13;;;14.10;99.90;;;;;;5039998;28;20057;-83
2022/11/10 12:40:41;;;;;;;16.67;3.05;;;14.10;99.90;;;;;;5019833;28;20048;-83
2022/11/10 12:43:28;;;;;;;19.90;4.00;;;14.20;99.90;;;;;;5045240;28;20044;-82
2022/11/10 12:45:59;;;;;;;18.35;3.33;;;14.20;99.90;;;;;;5032480;28;20053;-83
2022/11/10 12:48:30;;;;;;;16.95;3.83;;;14.20;99.90;;;;;;5046626;28;20056;-83
2022/11/10 12:51:16;;;;;;;12.93;2.80;;;14.20;99.90;;;;;;5049413;28;20463;-83
2022/11/10 12:53:42;;;;;;;21.35;3.00;;;14.10;99.90;;;;;;5045422;28;20862;-83
2022/11/10 12:56:33;;;;;;;18.38;2.97;;;14.10;99.90;;;;;;5047445;28;20053;-83
2022/11/10 12:59:20;;;;;;;14.18;2.95;;;14.10;99.90;;;;;;5035601;28;20045;-83
2022/11/10 13:01:50;;;;;;;15.45;2.60;;;14.10;99.90;;;;;;5021309;28;20060;-83
2022/11/10 13:04:18;;;;;;;22.08;3.65;;;14.10;99.90;;;;;;5046499;28;20113;-83